CFG8EF EDDF-LEPA
Flight info
| Callsign | CFG8EF |
|---|---|
| Flight time | 1h 44m |
| Altitude | 35000 |
| Route | ANEKI2L/18 ANEKI Y163 HERBI Y164 MOPAN DCT LUTIX DCT BENOT DCT NEMOS DCT GEVEA DCT INCUS DCT BALSI DCT RETNO DCT TUPOX DCT MTG DCT DIVKO DCT VATIR DCT PIVUS N852 VERSO L129 LUNIK |
| Aircraft | A321/M-SDE2E3FGHIJ1RWXYZ/LB1 |
Departure
| Time | 2026-04-17 09:30 |
|---|---|
| Airport | Frankfurt Main Airport (EDDF) |
Arrival
| Time | 2026-04-17 11:15 |
|---|---|
| Airport | Palma de Mallorca Airport (LEPA) |
| Time | Latitude | Longitude | Altitude | Speed | Heading |
|---|---|---|---|---|---|
| 2026-04-17 08:51 | 50.04747 | 8.57136 | 358 ft | 0 kts | 120° |
| 2026-04-17 09:17 | 50.04751 | 8.57127 | 363 ft | 4 kts | 120° |
| 2026-04-17 09:17 | 50.04758 | 8.57107 | 358 ft | 0 kts | 121° |
| 2026-04-17 09:19 | 50.04762 | 8.57099 | 360 ft | 4 kts | 122° |
| 2026-04-17 09:20 | 50.04777 | 8.57064 | 361 ft | 4 kts | 133° |
| 2026-04-17 09:20 | 50.04795 | 8.57042 | 358 ft | 4 kts | 176° |
| 2026-04-17 09:20 | 50.04802 | 8.57040 | 356 ft | 3 kts | 204° |
| 2026-04-17 09:20 | 50.04778 | 8.57023 | 360 ft | 4 kts | 204° |
| 2026-04-17 09:21 | 50.04754 | 8.57006 | 356 ft | 4 kts | 204° |
| 2026-04-17 09:21 | 50.04732 | 8.56990 | 362 ft | 3 kts | 205° |
| 2026-04-17 09:21 | 50.04705 | 8.56971 | 357 ft | 4 kts | 205° |
| 2026-04-17 09:21 | 50.04680 | 8.56953 | 361 ft | 4 kts | 205° |
| 2026-04-17 09:22 | 50.04660 | 8.56939 | 360 ft | 1 kts | 205° |
| 2026-04-17 09:23 | 50.04659 | 8.56938 | 356 ft | 0 kts | 205° |
| 2026-04-17 09:24 | 50.04636 | 8.56923 | 360 ft | 9 kts | 199° |
| 2026-04-17 09:24 | 50.04558 | 8.56894 | 361 ft | 10 kts | 192° |
| 2026-04-17 09:24 | 50.04475 | 8.56855 | 365 ft | 19 kts | 211° |
| 2026-04-17 09:24 | 50.04404 | 8.56626 | 359 ft | 28 kts | 250° |
| 2026-04-17 09:25 | 50.04335 | 8.56340 | 359 ft | 28 kts | 250° |
| 2026-04-17 09:25 | 50.04269 | 8.56058 | 361 ft | 28 kts | 249° |
| 2026-04-17 09:25 | 50.04201 | 8.55783 | 358 ft | 27 kts | 249° |
| 2026-04-17 09:25 | 50.04137 | 8.55510 | 358 ft | 26 kts | 250° |
| 2026-04-17 09:26 | 50.04074 | 8.55247 | 357 ft | 26 kts | 249° |
| 2026-04-17 09:26 | 50.04003 | 8.54947 | 357 ft | 29 kts | 251° |
| 2026-04-17 09:26 | 50.03930 | 8.54649 | 352 ft | 30 kts | 250° |
| 2026-04-17 09:26 | 50.03852 | 8.54357 | 350 ft | 29 kts | 240° |
| 2026-04-17 09:27 | 50.03769 | 8.54098 | 349 ft | 26 kts | 248° |
| 2026-04-17 09:27 | 50.03706 | 8.53835 | 349 ft | 27 kts | 252° |
| 2026-04-17 09:27 | 50.03640 | 8.53566 | 337 ft | 27 kts | 249° |
| 2026-04-17 09:27 | 50.03576 | 8.53299 | 335 ft | 26 kts | 249° |
| 2026-04-17 09:28 | 50.03513 | 8.53035 | 335 ft | 26 kts | 249° |
| 2026-04-17 09:28 | 50.03461 | 8.52838 | 333 ft | 12 kts | 248° |
| 2026-04-17 09:28 | 50.03430 | 8.52717 | 332 ft | 12 kts | 249° |
| 2026-04-17 09:28 | 50.03394 | 8.52610 | 332 ft | 10 kts | 218° |
| 2026-04-17 09:29 | 50.03353 | 8.52595 | 333 ft | 0 kts | 182° |
| 2026-04-17 09:29 | 50.03352 | 8.52595 | 333 ft | 2 kts | 182° |
| 2026-04-17 09:29 | 50.03148 | 8.52595 | 330 ft | 65 kts | 179° |
| 2026-04-17 09:30 | 50.02477 | 8.52604 | 335 ft | 125 kts | 179° |
| 2026-04-17 09:30 | 50.01517 | 8.52650 | 334 ft | 167 kts | 184° |
| 2026-04-17 09:30 | 50.00320 | 8.52623 | 710 ft | 174 kts | 179° |
| 2026-04-17 09:30 | 49.99100 | 8.52660 | 1314 ft | 176 kts | 178° |
| 2026-04-17 09:31 | 49.97853 | 8.52736 | 1715 ft | 188 kts | 177° |
| 2026-04-17 09:31 | 49.96472 | 8.52852 | 1809 ft | 211 kts | 176° |
| 2026-04-17 09:31 | 49.94923 | 8.53002 | 1919 ft | 237 kts | 176° |
| 2026-04-17 09:31 | 49.93206 | 8.53139 | 2383 ft | 253 kts | 177° |
| 2026-04-17 09:32 | 49.91432 | 8.53265 | 3260 ft | 257 kts | 178° |
| 2026-04-17 09:32 | 49.89640 | 8.53388 | 4140 ft | 259 kts | 177° |
| 2026-04-17 09:32 | 49.87829 | 8.53515 | 4987 ft | 262 kts | 178° |
| 2026-04-17 09:32 | 49.85992 | 8.53641 | 5806 ft | 265 kts | 178° |
| 2026-04-17 09:33 | 49.84141 | 8.53761 | 6626 ft | 268 kts | 178° |
| 2026-04-17 09:33 | 49.82295 | 8.53879 | 7365 ft | 271 kts | 178° |
| 2026-04-17 09:33 | 49.80392 | 8.54003 | 8074 ft | 276 kts | 178° |
| 2026-04-17 09:33 | 49.78460 | 8.54127 | 8785 ft | 280 kts | 179° |
| 2026-04-17 09:34 | 49.76499 | 8.53946 | 9486 ft | 285 kts | 186° |
| 2026-04-17 09:34 | 49.74513 | 8.53676 | 10180 ft | 289 kts | 186° |
| 2026-04-17 09:34 | 49.72467 | 8.53400 | 10559 ft | 305 kts | 186° |
| 2026-04-17 09:34 | 49.70270 | 8.53105 | 10688 ft | 328 kts | 186° |
| 2026-04-17 09:35 | 49.67923 | 8.52792 | 10817 ft | 349 kts | 186° |
| 2026-04-17 09:35 | 49.65453 | 8.52465 | 11205 ft | 361 kts | 185° |
| 2026-04-17 09:35 | 49.62937 | 8.52136 | 11780 ft | 366 kts | 186° |
| 2026-04-17 09:35 | 49.60384 | 8.51800 | 12400 ft | 370 kts | 186° |
| 2026-04-17 09:36 | 49.57804 | 8.51466 | 13037 ft | 374 kts | 186° |
| 2026-04-17 09:36 | 49.55355 | 8.51148 | 13625 ft | 377 kts | 186° |
| 2026-04-17 09:36 | 49.52727 | 8.50789 | 14193 ft | 382 kts | 186° |
| 2026-04-17 09:36 | 49.50100 | 8.50431 | 14737 ft | 386 kts | 186° |
| 2026-04-17 09:37 | 49.47412 | 8.50072 | 15300 ft | 389 kts | 186° |
| 2026-04-17 09:37 | 49.44709 | 8.49719 | 15860 ft | 392 kts | 186° |
| 2026-04-17 09:37 | 49.41982 | 8.49365 | 16415 ft | 395 kts | 186° |
| 2026-04-17 09:37 | 49.39231 | 8.49010 | 16949 ft | 398 kts | 186° |
| 2026-04-17 09:38 | 49.36455 | 8.48652 | 17490 ft | 401 kts | 186° |
| 2026-04-17 09:38 | 49.33661 | 8.48290 | 18004 ft | 404 kts | 186° |
| 2026-04-17 09:38 | 49.30848 | 8.47923 | 18521 ft | 407 kts | 186° |
| 2026-04-17 09:38 | 49.29038 | 8.47684 | 18806 ft | 408 kts | 187° |
| 2026-04-17 09:39 | 49.26209 | 8.47287 | 19053 ft | 409 kts | 187° |
| 2026-04-17 09:39 | 49.23360 | 8.46910 | 19467 ft | 413 kts | 186° |
| 2026-04-17 09:39 | 49.20482 | 8.46544 | 19918 ft | 416 kts | 186° |
| 2026-04-17 09:39 | 49.17587 | 8.46185 | 20357 ft | 419 kts | 186° |
| 2026-04-17 09:40 | 49.14670 | 8.45824 | 20792 ft | 422 kts | 186° |
| 2026-04-17 09:40 | 49.11742 | 8.45453 | 21220 ft | 424 kts | 187° |
| 2026-04-17 09:40 | 49.08824 | 8.45075 | 21636 ft | 427 kts | 187° |
| 2026-04-17 09:40 | 49.05873 | 8.44563 | 22044 ft | 428 kts | 193° |
| 2026-04-17 09:41 | 49.02955 | 8.43577 | 22467 ft | 430 kts | 195° |
| 2026-04-17 09:41 | 49.00030 | 8.42555 | 22889 ft | 433 kts | 195° |
| 2026-04-17 09:41 | 48.97074 | 8.41525 | 23316 ft | 436 kts | 195° |
| 2026-04-17 09:41 | 48.94115 | 8.40492 | 23733 ft | 439 kts | 195° |
| 2026-04-17 09:42 | 48.91128 | 8.39449 | 24092 ft | 441 kts | 195° |
| 2026-04-17 09:42 | 48.88126 | 8.38403 | 24449 ft | 443 kts | 195° |
| 2026-04-17 09:42 | 48.85107 | 8.37356 | 24796 ft | 446 kts | 195° |
| 2026-04-17 09:42 | 48.82071 | 8.36306 | 25148 ft | 448 kts | 195° |
| 2026-04-17 09:43 | 48.79022 | 8.35252 | 25504 ft | 450 kts | 195° |
| 2026-04-17 09:43 | 48.75962 | 8.34179 | 25854 ft | 452 kts | 195° |
| 2026-04-17 09:43 | 48.72893 | 8.33073 | 26190 ft | 454 kts | 196° |
| 2026-04-17 09:43 | 48.69866 | 8.31958 | 26506 ft | 456 kts | 196° |
| 2026-04-17 09:44 | 48.66778 | 8.30810 | 26847 ft | 457 kts | 196° |
| 2026-04-17 09:44 | 48.63683 | 8.29662 | 27161 ft | 459 kts | 196° |
| 2026-04-17 09:44 | 48.60570 | 8.28515 | 27461 ft | 461 kts | 196° |
| 2026-04-17 09:44 | 48.57444 | 8.27372 | 27779 ft | 463 kts | 196° |
| 2026-04-17 09:45 | 48.54303 | 8.26234 | 28083 ft | 465 kts | 196° |
| 2026-04-17 09:45 | 48.51149 | 8.25094 | 28391 ft | 467 kts | 196° |
| 2026-04-17 09:45 | 48.47980 | 8.23948 | 28686 ft | 469 kts | 196° |
| 2026-04-17 09:45 | 48.44803 | 8.22792 | 29001 ft | 470 kts | 197° |
| 2026-04-17 09:46 | 48.41624 | 8.21633 | 29423 ft | 469 kts | 197° |
| 2026-04-17 09:46 | 48.38456 | 8.20477 | 29849 ft | 468 kts | 197° |
| 2026-04-17 09:46 | 48.35293 | 8.19324 | 30257 ft | 467 kts | 197° |
| 2026-04-17 09:46 | 48.32140 | 8.18177 | 30583 ft | 466 kts | 197° |
| 2026-04-17 09:47 | 48.28993 | 8.17034 | 30914 ft | 465 kts | 197° |
| 2026-04-17 09:47 | 48.25862 | 8.15849 | 31275 ft | 463 kts | 200° |
| 2026-04-17 09:47 | 48.22871 | 8.14147 | 31616 ft | 458 kts | 209° |
| 2026-04-17 09:47 | 48.20020 | 8.12034 | 31973 ft | 456 kts | 210° |
| 2026-04-17 09:48 | 48.17176 | 8.09922 | 32344 ft | 455 kts | 210° |
| 2026-04-17 09:48 | 48.14371 | 8.07844 | 32700 ft | 454 kts | 210° |
| 2026-04-17 09:48 | 48.11536 | 8.05748 | 33055 ft | 453 kts | 210° |
| 2026-04-17 09:48 | 48.08708 | 8.03664 | 33413 ft | 452 kts | 210° |
| 2026-04-17 09:49 | 48.05887 | 8.01593 | 33775 ft | 451 kts | 210° |
| 2026-04-17 09:49 | 48.03066 | 7.99525 | 34131 ft | 451 kts | 210° |
| 2026-04-17 09:49 | 48.00258 | 7.97464 | 34431 ft | 450 kts | 210° |
| 2026-04-17 09:49 | 47.97454 | 7.95405 | 34703 ft | 449 kts | 210° |
| 2026-04-17 09:50 | 47.94647 | 7.93347 | 34976 ft | 449 kts | 210° |
| 2026-04-17 09:50 | 47.91843 | 7.91293 | 35164 ft | 450 kts | 210° |
| 2026-04-17 09:50 | 47.86167 | 7.87136 | 35224 ft | 460 kts | 210° |
| 2026-04-17 09:51 | 47.80372 | 7.82922 | 35231 ft | 468 kts | 209° |
| 2026-04-17 09:51 | 47.77463 | 7.80815 | 35226 ft | 457 kts | 209° |
| 2026-04-17 09:51 | 47.74631 | 7.78769 | 35233 ft | 449 kts | 210° |
| 2026-04-17 09:52 | 47.69080 | 7.74742 | 35240 ft | 446 kts | 210° |
| 2026-04-17 09:52 | 47.63509 | 7.70697 | 35244 ft | 446 kts | 210° |
| 2026-04-17 09:53 | 47.57941 | 7.66659 | 35244 ft | 445 kts | 210° |
| 2026-04-17 09:53 | 47.52393 | 7.62664 | 35246 ft | 445 kts | 209° |
| 2026-04-17 09:54 | 47.46783 | 7.58649 | 35239 ft | 445 kts | 209° |
| 2026-04-17 09:54 | 47.41205 | 7.54653 | 35234 ft | 445 kts | 209° |
| 2026-04-17 09:55 | 47.35627 | 7.50659 | 35234 ft | 445 kts | 209° |
| 2026-04-17 09:55 | 47.30085 | 7.46701 | 35238 ft | 445 kts | 209° |
| 2026-04-17 09:56 | 47.24506 | 7.42734 | 35245 ft | 445 kts | 209° |
| 2026-04-17 09:56 | 47.18972 | 7.38681 | 35241 ft | 442 kts | 215° |
| 2026-04-17 09:57 | 47.14296 | 7.32949 | 35239 ft | 434 kts | 232° |
| 2026-04-17 09:57 | 47.10535 | 7.26035 | 35233 ft | 433 kts | 234° |
| 2026-04-17 09:58 | 47.06774 | 7.19112 | 35227 ft | 434 kts | 234° |
| 2026-04-17 09:58 | 47.03028 | 7.12241 | 35224 ft | 434 kts | 234° |
| 2026-04-17 09:59 | 46.99247 | 7.05342 | 35230 ft | 434 kts | 234° |
| 2026-04-17 09:59 | 46.95470 | 6.98447 | 35238 ft | 434 kts | 234° |
| 2026-04-17 10:00 | 46.92299 | 6.92673 | 35244 ft | 434 kts | 233° |
| 2026-04-17 10:00 | 46.87874 | 6.86680 | 35245 ft | 439 kts | 222° |
| 2026-04-17 10:01 | 46.83138 | 6.81056 | 35244 ft | 439 kts | 222° |
| 2026-04-17 10:01 | 46.78404 | 6.75425 | 35246 ft | 439 kts | 222° |
| 2026-04-17 10:02 | 46.73672 | 6.69792 | 35245 ft | 439 kts | 222° |
| 2026-04-17 10:02 | 46.68938 | 6.64168 | 35239 ft | 439 kts | 222° |
| 2026-04-17 10:03 | 46.64195 | 6.58566 | 35236 ft | 439 kts | 222° |
| 2026-04-17 10:03 | 46.59448 | 6.52986 | 35220 ft | 439 kts | 222° |
| 2026-04-17 10:04 | 46.54702 | 6.47409 | 35216 ft | 439 kts | 222° |
| 2026-04-17 10:04 | 46.49990 | 6.41877 | 35223 ft | 438 kts | 222° |
| 2026-04-17 10:05 | 46.45242 | 6.36317 | 35224 ft | 438 kts | 222° |
| 2026-04-17 10:05 | 46.40484 | 6.30766 | 35228 ft | 438 kts | 222° |
| 2026-04-17 10:06 | 46.35738 | 6.25236 | 35229 ft | 439 kts | 222° |
| 2026-04-17 10:06 | 46.30975 | 6.19697 | 35239 ft | 439 kts | 222° |
| 2026-04-17 10:07 | 46.25966 | 6.14647 | 35237 ft | 443 kts | 209° |
| 2026-04-17 10:07 | 46.20045 | 6.12011 | 35233 ft | 451 kts | 191° |
| 2026-04-17 10:08 | 46.13878 | 6.10671 | 35228 ft | 451 kts | 192° |
| 2026-04-17 10:08 | 46.07673 | 6.09286 | 35199 ft | 451 kts | 192° |
| 2026-04-17 10:09 | 46.01460 | 6.07895 | 35197 ft | 452 kts | 192° |
| 2026-04-17 10:09 | 45.95242 | 6.06525 | 35196 ft | 452 kts | 192° |
| 2026-04-17 10:10 | 45.89012 | 6.05152 | 35197 ft | 453 kts | 192° |
| 2026-04-17 10:11 | 45.79698 | 6.03100 | 35194 ft | 454 kts | 192° |
| 2026-04-17 10:11 | 45.73451 | 6.01731 | 35195 ft | 454 kts | 192° |
| 2026-04-17 10:12 | 45.67199 | 6.00358 | 35198 ft | 455 kts | 192° |
| 2026-04-17 10:12 | 45.60957 | 5.98970 | 35202 ft | 455 kts | 192° |
| 2026-04-17 10:13 | 45.54686 | 5.97591 | 35200 ft | 455 kts | 192° |
| 2026-04-17 10:13 | 45.48414 | 5.96222 | 35195 ft | 456 kts | 192° |
| 2026-04-17 10:14 | 45.42230 | 5.94576 | 35181 ft | 454 kts | 195° |
| 2026-04-17 10:14 | 45.36076 | 5.92544 | 35180 ft | 455 kts | 196° |
| 2026-04-17 10:15 | 45.29915 | 5.90496 | 35176 ft | 455 kts | 195° |
| 2026-04-17 10:15 | 45.23724 | 5.88559 | 35167 ft | 455 kts | 195° |
| 2026-04-17 10:16 | 45.17520 | 5.86661 | 35169 ft | 456 kts | 195° |
| 2026-04-17 10:16 | 45.11321 | 5.84752 | 35159 ft | 456 kts | 195° |
| 2026-04-17 10:17 | 45.05159 | 5.82842 | 35150 ft | 456 kts | 195° |
| 2026-04-17 10:17 | 44.98950 | 5.80919 | 35149 ft | 457 kts | 195° |
| 2026-04-17 10:18 | 44.92732 | 5.79000 | 35145 ft | 457 kts | 195° |
| 2026-04-17 10:18 | 44.86515 | 5.77098 | 35140 ft | 458 kts | 195° |
| 2026-04-17 10:19 | 44.80280 | 5.75195 | 35139 ft | 459 kts | 195° |
| 2026-04-17 10:19 | 44.74038 | 5.73281 | 35138 ft | 459 kts | 195° |
| 2026-04-17 10:20 | 44.67792 | 5.71378 | 35138 ft | 459 kts | 195° |
| 2026-04-17 10:20 | 44.61584 | 5.69490 | 35133 ft | 460 kts | 195° |
| 2026-04-17 10:21 | 44.55321 | 5.67589 | 35134 ft | 460 kts | 195° |
| 2026-04-17 10:21 | 44.49056 | 5.65685 | 35133 ft | 461 kts | 195° |
| 2026-04-17 10:22 | 44.42792 | 5.63788 | 35133 ft | 461 kts | 194° |
| 2026-04-17 10:22 | 44.36589 | 5.61588 | 35128 ft | 458 kts | 204° |
| 2026-04-17 10:23 | 44.30666 | 5.58322 | 35127 ft | 458 kts | 204° |
| 2026-04-17 10:23 | 44.24737 | 5.55077 | 35123 ft | 458 kts | 204° |
| 2026-04-17 10:24 | 44.18834 | 5.51856 | 35122 ft | 458 kts | 204° |
| 2026-04-17 10:24 | 44.12895 | 5.48620 | 35124 ft | 459 kts | 204° |
| 2026-04-17 10:25 | 44.06942 | 5.45384 | 35124 ft | 459 kts | 204° |
| 2026-04-17 10:25 | 44.00974 | 5.42149 | 35123 ft | 460 kts | 204° |
| 2026-04-17 10:26 | 43.95015 | 5.38921 | 35124 ft | 460 kts | 204° |
| 2026-04-17 10:26 | 43.89048 | 5.35683 | 35128 ft | 461 kts | 204° |
| 2026-04-17 10:27 | 43.83115 | 5.32480 | 35135 ft | 461 kts | 204° |
| 2026-04-17 10:27 | 43.77124 | 5.29263 | 35140 ft | 461 kts | 204° |
| 2026-04-17 10:28 | 43.71142 | 5.26040 | 35151 ft | 462 kts | 204° |
| 2026-04-17 10:28 | 43.65143 | 5.22824 | 35156 ft | 462 kts | 204° |
| 2026-04-17 10:29 | 43.59146 | 5.19611 | 35147 ft | 462 kts | 204° |
| 2026-04-17 10:29 | 43.53171 | 5.16424 | 35147 ft | 462 kts | 204° |
| 2026-04-17 10:30 | 43.47175 | 5.13224 | 35154 ft | 462 kts | 204° |
| 2026-04-17 10:30 | 43.41168 | 5.10036 | 35151 ft | 463 kts | 204° |
| 2026-04-17 10:31 | 43.35577 | 5.05809 | 35152 ft | 458 kts | 218° |
| 2026-04-17 10:31 | 43.30364 | 5.00864 | 35144 ft | 458 kts | 217° |
| 2026-04-17 10:32 | 43.25107 | 4.95924 | 35145 ft | 458 kts | 217° |
| 2026-04-17 10:32 | 43.19836 | 4.90986 | 35138 ft | 459 kts | 217° |
| 2026-04-17 10:33 | 43.14563 | 4.86046 | 35138 ft | 459 kts | 217° |
| 2026-04-17 10:33 | 43.09294 | 4.81109 | 35153 ft | 459 kts | 217° |
| 2026-04-17 10:34 | 43.03908 | 4.76382 | 35146 ft | 462 kts | 212° |
| 2026-04-17 10:34 | 42.98281 | 4.72130 | 35140 ft | 462 kts | 212° |
| 2026-04-17 10:35 | 42.92666 | 4.67880 | 35149 ft | 462 kts | 212° |
| 2026-04-17 10:35 | 42.87030 | 4.63606 | 35145 ft | 463 kts | 212° |
| 2026-04-17 10:36 | 42.81426 | 4.59372 | 35161 ft | 464 kts | 212° |
| 2026-04-17 10:36 | 42.75780 | 4.55124 | 35158 ft | 464 kts | 211° |
| 2026-04-17 10:37 | 42.70125 | 4.50875 | 35161 ft | 464 kts | 211° |
| 2026-04-17 10:37 | 42.64498 | 4.46651 | 35167 ft | 464 kts | 211° |
| 2026-04-17 10:38 | 42.58841 | 4.42419 | 35163 ft | 465 kts | 211° |
| 2026-04-17 10:38 | 42.53174 | 4.38188 | 35168 ft | 465 kts | 211° |
| 2026-04-17 10:39 | 42.47501 | 4.33965 | 35169 ft | 465 kts | 211° |
| 2026-04-17 10:39 | 42.41825 | 4.29745 | 35169 ft | 465 kts | 211° |
| 2026-04-17 10:40 | 42.36145 | 4.25531 | 35171 ft | 466 kts | 211° |
| 2026-04-17 10:40 | 42.30459 | 4.21322 | 35170 ft | 466 kts | 211° |
| 2026-04-17 10:41 | 42.24765 | 4.17111 | 35174 ft | 466 kts | 211° |
| 2026-04-17 10:41 | 42.19114 | 4.12937 | 35175 ft | 466 kts | 211° |
| 2026-04-17 10:42 | 42.13420 | 4.08756 | 35172 ft | 466 kts | 211° |
| 2026-04-17 10:42 | 42.07726 | 4.04577 | 35168 ft | 466 kts | 211° |
| 2026-04-17 10:43 | 42.02025 | 4.00404 | 35170 ft | 467 kts | 211° |
| 2026-04-17 10:43 | 41.96314 | 3.96233 | 35173 ft | 467 kts | 211° |
| 2026-04-17 10:44 | 41.90292 | 3.92942 | 35167 ft | 470 kts | 194° |
| 2026-04-17 10:44 | 41.83849 | 3.91395 | 35169 ft | 471 kts | 191° |
| 2026-04-17 10:45 | 41.77423 | 3.89924 | 35165 ft | 471 kts | 191° |
| 2026-04-17 10:45 | 41.70964 | 3.88433 | 35168 ft | 471 kts | 191° |
| 2026-04-17 10:46 | 41.64495 | 3.86940 | 35173 ft | 472 kts | 191° |
| 2026-04-17 10:46 | 41.58020 | 3.85451 | 35181 ft | 472 kts | 191° |
| 2026-04-17 10:47 | 41.51557 | 3.83958 | 35183 ft | 472 kts | 191° |
| 2026-04-17 10:47 | 41.45078 | 3.82473 | 35184 ft | 472 kts | 191° |
| 2026-04-17 10:48 | 41.38654 | 3.81005 | 35187 ft | 472 kts | 191° |
| 2026-04-17 10:48 | 41.32184 | 3.79540 | 35188 ft | 471 kts | 191° |
| 2026-04-17 10:49 | 41.25715 | 3.78063 | 35187 ft | 471 kts | 191° |
| 2026-04-17 10:49 | 41.22483 | 3.77325 | 35037 ft | 472 kts | 191° |
| 2026-04-17 10:49 | 41.19236 | 3.76584 | 34266 ft | 477 kts | 191° |
| 2026-04-17 10:49 | 41.15951 | 3.75753 | 33253 ft | 483 kts | 195° |
| 2026-04-17 10:50 | 41.12752 | 3.74380 | 32348 ft | 484 kts | 202° |
| 2026-04-17 10:50 | 41.09604 | 3.72755 | 31439 ft | 487 kts | 202° |
| 2026-04-17 10:50 | 41.06445 | 3.71124 | 30492 ft | 490 kts | 202° |
| 2026-04-17 10:50 | 41.03248 | 3.69476 | 29418 ft | 492 kts | 202° |
| 2026-04-17 10:51 | 41.00084 | 3.67845 | 28325 ft | 495 kts | 202° |
| 2026-04-17 10:51 | 40.96907 | 3.66213 | 27848 ft | 485 kts | 202° |
| 2026-04-17 10:51 | 40.93769 | 3.64604 | 27153 ft | 482 kts | 202° |
| 2026-04-17 10:51 | 40.90652 | 3.63006 | 26505 ft | 478 kts | 202° |
| 2026-04-17 10:52 | 40.87561 | 3.61424 | 25857 ft | 474 kts | 202° |
| 2026-04-17 10:52 | 40.84502 | 3.59862 | 25223 ft | 470 kts | 202° |
| 2026-04-17 10:52 | 40.81464 | 3.58309 | 24603 ft | 466 kts | 202° |
| 2026-04-17 10:52 | 40.78451 | 3.56768 | 23984 ft | 463 kts | 202° |
| 2026-04-17 10:53 | 40.75466 | 3.55241 | 23314 ft | 459 kts | 202° |
| 2026-04-17 10:53 | 40.72501 | 3.53730 | 22727 ft | 453 kts | 202° |
| 2026-04-17 10:53 | 40.69578 | 3.52239 | 22168 ft | 447 kts | 202° |
| 2026-04-17 10:53 | 40.66697 | 3.50768 | 21630 ft | 441 kts | 202° |
| 2026-04-17 10:54 | 40.63862 | 3.49322 | 21112 ft | 434 kts | 202° |
| 2026-04-17 10:54 | 40.61063 | 3.47902 | 20619 ft | 428 kts | 202° |
| 2026-04-17 10:54 | 40.58299 | 3.46506 | 20135 ft | 422 kts | 202° |
| 2026-04-17 10:54 | 40.55573 | 3.45131 | 19659 ft | 416 kts | 202° |
| 2026-04-17 10:55 | 40.52894 | 3.43778 | 19215 ft | 410 kts | 202° |
| 2026-04-17 10:55 | 40.50244 | 3.42440 | 18763 ft | 405 kts | 202° |
| 2026-04-17 10:55 | 40.47636 | 3.41121 | 18293 ft | 400 kts | 202° |
| 2026-04-17 10:55 | 40.45081 | 3.39829 | 17844 ft | 395 kts | 202° |
| 2026-04-17 10:56 | 40.42537 | 3.38528 | 17398 ft | 390 kts | 203° |
| 2026-04-17 10:56 | 40.40041 | 3.37177 | 16961 ft | 385 kts | 204° |
| 2026-04-17 10:56 | 40.37583 | 3.35796 | 16499 ft | 382 kts | 205° |
| 2026-04-17 10:56 | 40.35162 | 3.34416 | 16056 ft | 379 kts | 205° |
| 2026-04-17 10:57 | 40.32751 | 3.33049 | 15592 ft | 376 kts | 205° |
| 2026-04-17 10:57 | 40.30354 | 3.31702 | 15132 ft | 374 kts | 204° |
| 2026-04-17 10:57 | 40.27963 | 3.30370 | 14662 ft | 372 kts | 204° |
| 2026-04-17 10:57 | 40.25582 | 3.29052 | 14194 ft | 371 kts | 204° |
| 2026-04-17 10:58 | 40.23198 | 3.27739 | 13679 ft | 370 kts | 204° |
| 2026-04-17 10:58 | 40.20834 | 3.26441 | 13204 ft | 368 kts | 204° |
| 2026-04-17 10:58 | 40.18486 | 3.25151 | 12699 ft | 365 kts | 204° |
| 2026-04-17 10:58 | 40.16934 | 3.24298 | 12374 ft | 364 kts | 204° |
| 2026-04-17 10:59 | 40.13854 | 3.22599 | 11720 ft | 362 kts | 204° |
| 2026-04-17 10:59 | 40.11540 | 3.21324 | 11160 ft | 362 kts | 204° |
| 2026-04-17 10:59 | 40.09217 | 3.20047 | 10713 ft | 359 kts | 204° |
| 2026-04-17 10:59 | 40.06961 | 3.18808 | 10589 ft | 345 kts | 204° |
| 2026-04-17 11:00 | 40.05484 | 3.17998 | 10508 ft | 337 kts | 204° |
| 2026-04-17 11:00 | 40.02693 | 3.16469 | 10347 ft | 320 kts | 204° |
| 2026-04-17 11:00 | 40.01345 | 3.15730 | 10267 ft | 313 kts | 204° |
| 2026-04-17 11:00 | 39.99373 | 3.14646 | 10062 ft | 305 kts | 204° |
| 2026-04-17 11:01 | 39.97434 | 3.13580 | 9941 ft | 300 kts | 204° |
| 2026-04-17 11:01 | 39.95497 | 3.12515 | 9494 ft | 304 kts | 204° |
| 2026-04-17 11:01 | 39.93564 | 3.11460 | 9161 ft | 300 kts | 204° |
| 2026-04-17 11:01 | 39.91618 | 3.10400 | 8775 ft | 301 kts | 204° |
| 2026-04-17 11:02 | 39.89700 | 3.09354 | 8441 ft | 297 kts | 204° |
| 2026-04-17 11:02 | 39.87815 | 3.08325 | 7973 ft | 292 kts | 204° |
| 2026-04-17 11:02 | 39.85943 | 3.07303 | 7387 ft | 292 kts | 204° |
| 2026-04-17 11:02 | 39.84065 | 3.06277 | 6816 ft | 293 kts | 204° |
| 2026-04-17 11:03 | 39.82188 | 3.05255 | 6210 ft | 293 kts | 205° |
| 2026-04-17 11:03 | 39.80305 | 3.04229 | 5611 ft | 295 kts | 204° |
| 2026-04-17 11:03 | 39.78424 | 3.03200 | 5351 ft | 289 kts | 204° |
| 2026-04-17 11:03 | 39.76586 | 3.02199 | 5107 ft | 284 kts | 203° |
| 2026-04-17 11:04 | 39.74769 | 3.01212 | 4741 ft | 282 kts | 203° |
| 2026-04-17 11:04 | 39.72951 | 3.00223 | 4243 ft | 286 kts | 202° |
| 2026-04-17 11:04 | 39.71115 | 2.99228 | 3938 ft | 284 kts | 201° |
| 2026-04-17 11:04 | 39.69316 | 2.98255 | 3784 ft | 275 kts | 201° |
| 2026-04-17 11:05 | 39.67576 | 2.97310 | 3666 ft | 267 kts | 202° |
| 2026-04-17 11:05 | 39.65876 | 2.96381 | 3534 ft | 263 kts | 202° |
| 2026-04-17 11:05 | 39.64376 | 2.95006 | 3182 ft | 268 kts | 229° |
| 2026-04-17 11:05 | 39.63394 | 2.92993 | 2907 ft | 268 kts | 242° |
| 2026-04-17 11:06 | 39.62492 | 2.90878 | 2628 ft | 259 kts | 240° |
| 2026-04-17 11:06 | 39.61602 | 2.88944 | 2310 ft | 247 kts | 238° |
| 2026-04-17 11:06 | 39.60716 | 2.87142 | 2100 ft | 228 kts | 236° |
| 2026-04-17 11:06 | 39.59896 | 2.85475 | 1814 ft | 212 kts | 239° |
| 2026-04-17 11:07 | 39.59191 | 2.83877 | 1538 ft | 195 kts | 240° |
| 2026-04-17 11:07 | 39.58520 | 2.82422 | 1497 ft | 192 kts | 238° |
| 2026-04-17 11:07 | 39.57825 | 2.80901 | 2110 ft | 202 kts | 239° |
| 2026-04-17 11:07 | 39.57098 | 2.79323 | 2070 ft | 203 kts | 239° |
| 2026-04-17 11:08 | 39.56330 | 2.77654 | 2271 ft | 226 kts | 238° |
| 2026-04-17 11:08 | 39.55199 | 2.76202 | 2488 ft | 235 kts | 207° |
| 2026-04-17 11:08 | 39.53640 | 2.75739 | 2719 ft | 232 kts | 173° |
| 2026-04-17 11:08 | 39.52143 | 2.76430 | 2930 ft | 229 kts | 140° |
| 2026-04-17 11:09 | 39.51192 | 2.78010 | 2996 ft | 222 kts | 105° |
| 2026-04-17 11:09 | 39.51090 | 2.79950 | 2997 ft | 217 kts | 73° |
| 2026-04-17 11:09 | 39.51699 | 2.81738 | 3007 ft | 218 kts | 61° |
| 2026-04-17 11:10 | 39.53226 | 2.85207 | 2712 ft | 218 kts | 59° |
| 2026-04-17 11:10 | 39.53992 | 2.86901 | 2585 ft | 217 kts | 59° |
| 2026-04-17 11:10 | 39.54764 | 2.88589 | 2507 ft | 218 kts | 59° |
| 2026-04-17 11:10 | 39.55528 | 2.90249 | 2501 ft | 217 kts | 57° |
| 2026-04-17 11:11 | 39.56566 | 2.91652 | 2527 ft | 214 kts | 31° |
| 2026-04-17 11:11 | 39.57940 | 2.92214 | 2505 ft | 206 kts | 4° |
| 2026-04-17 11:11 | 39.59336 | 2.91869 | 2504 ft | 207 kts | 337° |
| 2026-04-17 11:11 | 39.60474 | 2.90726 | 2523 ft | 211 kts | 309° |
| 2026-04-17 11:12 | 39.61025 | 2.88968 | 2193 ft | 214 kts | 275° |
| 2026-04-17 11:12 | 39.60716 | 2.87146 | 1936 ft | 203 kts | 242° |
| 2026-04-17 11:12 | 39.60004 | 2.85652 | 1685 ft | 187 kts | 238° |
| 2026-04-17 11:12 | 39.59355 | 2.84308 | 1439 ft | 168 kts | 238° |
| 2026-04-17 11:13 | 39.58773 | 2.83066 | 1183 ft | 156 kts | 240° |
| 2026-04-17 11:13 | 39.58234 | 2.81898 | 979 ft | 147 kts | 239° |
| 2026-04-17 11:13 | 39.57715 | 2.80785 | 823 ft | 141 kts | 238° |
| 2026-04-17 11:13 | 39.57210 | 2.79710 | 678 ft | 140 kts | 238° |
| 2026-04-17 11:14 | 39.56711 | 2.78640 | 460 ft | 139 kts | 237° |
| 2026-04-17 11:14 | 39.56202 | 2.77563 | 306 ft | 141 kts | 238° |
| 2026-04-17 11:14 | 39.55685 | 2.76473 | 124 ft | 144 kts | 238° |
| 2026-04-17 11:14 | 39.55186 | 2.75410 | 34 ft | 130 kts | 238° |
| 2026-04-17 11:15 | 39.54781 | 2.74554 | 30 ft | 88 kts | 238° |
| 2026-04-17 11:15 | 39.54546 | 2.74055 | 30 ft | 51 kts | 238° |
| 2026-04-17 11:15 | 39.54387 | 2.73716 | 30 ft | 33 kts | 237° |
| 2026-04-17 11:15 | 39.54292 | 2.73513 | 30 ft | 22 kts | 241° |
| 2026-04-17 11:16 | 39.54279 | 2.73338 | 30 ft | 14 kts | 274° |
| 2026-04-17 11:16 | 39.54287 | 2.73218 | 30 ft | 12 kts | 281° |
| 2026-04-17 11:16 | 39.54339 | 2.73184 | 30 ft | 9 kts | 32° |
| 2026-04-17 11:16 | 39.54372 | 2.73243 | 30 ft | 8 kts | 58° |
| 2026-04-17 11:17 | 39.54404 | 2.73309 | 30 ft | 9 kts | 58° |
| 2026-04-17 11:17 | 39.54451 | 2.73410 | 30 ft | 17 kts | 59° |
| 2026-04-17 11:17 | 39.54510 | 2.73535 | 30 ft | 16 kts | 58° |
| 2026-04-17 11:17 | 39.54564 | 2.73630 | 30 ft | 8 kts | 35° |
| 2026-04-17 11:18 | 39.54615 | 2.73627 | 30 ft | 7 kts | 347° |
| 2026-04-17 11:18 | 39.54660 | 2.73613 | 30 ft | 6 kts | 341° |
| 2026-04-17 11:18 | 39.54696 | 2.73590 | 30 ft | 5 kts | 331° |
| 2026-04-17 11:18 | 39.54725 | 2.73568 | 30 ft | 5 kts | 329° |
| 2026-04-17 11:19 | 39.54749 | 2.73551 | 30 ft | 3 kts | 338° |
| 2026-04-17 11:19 | 39.54772 | 2.73560 | 30 ft | 6 kts | 34° |
| 2026-04-17 11:19 | 39.54795 | 2.73598 | 30 ft | 2 kts | 56° |
| 2026-04-17 11:19 | 39.54799 | 2.73604 | 30 ft | 1 kts | 56° |
| 2026-04-17 11:20 | 39.54800 | 2.73608 | 30 ft | 0 kts | 57° |
| 2026-04-17 11:25 | 39.54800 | 2.73607 | 30 ft | 0 kts | 57° |